Terminal Aerodrome Forecast
Issued by NWS Paducah, KY

Home | Current Version | Previous Version | Text Only | Print | Product List | Glossary On
Versions: 1 2 3 4 5 6 7 8 9 10 11 12 13 14
000
FTUS43 KPAH 042320
TAFPAH
TAF
KPAH 042320Z 0500/0524 27007KT P6SM BKN015
     FM050900 06002KT 1/2SM FG VV009
     FM051400 07006KT 4SM BR BKN030
     FM051800 09007KT P6SM SCT040=

USA.gov is the U.S. government's official web portal to all federal, state and local government web resources and services.